createdAt,value
2022-09-17T00:02:27.948Z,88.40
2022-09-17T00:05:14.511Z,88.86
2022-09-17T00:07:54.972Z,86.81
2022-09-17T00:10:41.511Z,85.91
2022-09-17T00:13:22.651Z,85.09
2022-09-17T00:16:09.506Z,83.79
2022-09-17T00:18:49.923Z,83.94
2022-09-17T00:21:37.440Z,83.87
2022-09-17T00:24:26.502Z,83.80
2022-09-17T00:27:13.430Z,82.92
2022-09-17T00:29:53.891Z,84.17
2022-09-17T00:32:40.453Z,85.18
2022-09-17T00:35:20.842Z,83.57
2022-09-17T00:38:07.479Z,82.84
2022-09-17T00:40:47.897Z,83.00
2022-09-17T00:43:56.449Z,83.15
2022-09-17T00:46:50.534Z,84.20
2022-09-17T00:49:42.435Z,84.72
2022-09-17T00:52:35.424Z,86.13
2022-09-17T00:55:36.419Z,86.27
2022-09-17T00:58:27.479Z,87.04
2022-09-17T01:01:07.770Z,87.79
2022-09-17T01:03:54.456Z,87.64
2022-09-17T01:06:50.435Z,87.10
2022-09-17T01:09:58.399Z,87.41
2022-09-17T01:12:49.648Z,88.73
2022-09-17T01:15:52.531Z,88.73
2022-09-17T01:19:25.416Z,87.69
2022-09-17T01:22:17.914Z,88.62
2022-09-17T01:25:26.434Z,88.81
2022-09-17T01:28:36.446Z,87.26
2022-09-17T01:31:19.632Z,87.14
2022-09-17T01:34:21.386Z,85.37
2022-09-17T01:37:30.527Z,85.76
2022-09-17T01:40:29.137Z,85.13
2022-09-17T01:43:44.373Z,84.91
2022-09-17T01:46:43.566Z,84.24
2022-09-17T01:49:32.376Z,83.60
2022-09-17T01:52:22.387Z,83.70
2022-09-17T01:55:07.496Z,84.12
2022-09-17T01:57:57.384Z,84.27
2022-09-17T02:00:37.638Z,83.90
2022-09-17T02:03:33.373Z,83.37
2022-09-17T02:06:19.450Z,83.66
2022-09-17T02:09:20.392Z,82.88
2022-09-17T02:12:07.418Z,83.14
2022-09-17T02:15:00.329Z,83.04
2022-09-17T02:18:36.324Z,82.25
2022-09-17T02:21:45.364Z,83.41
2022-09-17T02:24:40.328Z,83.84
2022-09-17T02:28:04.354Z,84.47
2022-09-17T02:30:52.350Z,84.15
2022-09-17T02:33:42.577Z,83.02
2022-09-17T02:36:23.394Z,83.37
2022-09-17T02:39:04.668Z,82.99
2022-09-17T02:42:12.362Z,84.43
2022-09-17T02:45:12.308Z,84.26
2022-09-17T02:48:22.310Z,83.67
2022-09-17T02:51:29.350Z,83.50
2022-09-17T02:54:24.549Z,83.50
2022-09-17T02:57:24.318Z,84.84
2022-09-17T03:00:10.525Z,85.40
2022-09-17T03:03:09.293Z,84.87
2022-09-17T03:05:51.022Z,84.82
2022-09-17T03:25:56.069Z,92.29
2022-09-17T03:28:36.352Z,92.69
2022-09-17T03:31:23.063Z,92.21
2022-09-17T03:34:10.049Z,91.79
2022-09-17T03:36:50.222Z,91.45
2022-09-17T03:39:37.051Z,91.69
2022-09-17T03:42:17.278Z,92.64
2022-09-17T03:45:04.026Z,92.95
2022-09-17T03:47:51.028Z,92.66
2022-09-17T03:50:31.598Z,92.83
2022-09-17T03:53:17.997Z,92.93
2022-09-17T03:56:03.328Z,92.97
2022-09-17T03:58:50.032Z,92.86
2022-09-17T04:01:37.099Z,92.21
2022-09-17T04:04:24.021Z,91.52
2022-09-17T04:07:05.038Z,91.76
2022-09-17T04:09:52.008Z,90.94
2022-09-17T04:12:32.413Z,90.36
2022-09-17T04:15:20.041Z,90.02
2022-09-17T04:18:00.553Z,90.03
2022-09-17T04:20:46.980Z,89.36
2022-09-17T04:23:40.988Z,87.57
2022-09-17T04:26:27.966Z,87.21
2022-09-17T04:29:08.101Z,85.20
2022-09-17T04:31:54.986Z,83.85
2022-09-17T04:34:41.943Z,80.69
2022-09-17T04:37:23.729Z,76.78
2022-09-17T04:40:10.972Z,76.17
2022-09-17T04:42:56.173Z,72.65
2022-09-17T04:45:43.974Z,68.52
2022-09-17T04:48:24.361Z,66.13
2022-09-17T04:51:10.970Z,65.05
2022-09-17T04:53:51.425Z,62.59
2022-09-17T04:56:37.939Z,62.48
2022-09-17T04:59:18.476Z,61.90
2022-09-17T05:02:04.992Z,60.17
2022-09-17T05:04:45.373Z,61.48
2022-09-17T05:07:31.949Z,58.08
2022-09-17T05:10:14.641Z,57.76
2022-09-17T05:13:02.896Z,58.58
2022-09-17T05:15:50.001Z,54.32
2022-09-17T05:18:36.967Z,54.51
2022-09-17T05:21:20.860Z,50.41
2022-09-17T05:24:07.929Z,49.06
2022-09-17T05:26:55.967Z,46.54
2022-09-17T05:29:43.964Z,43.87
2022-09-17T05:32:24.417Z,42.65
2022-09-17T05:35:10.928Z,41.83
2022-09-17T05:37:57.896Z,39.67
2022-09-17T05:40:45.890Z,37.84
2022-09-17T05:43:26.306Z,37.40
2022-09-17T05:46:18.997Z,48.82
2022-09-17T05:48:59.422Z,52.93
2022-09-17T05:51:45.906Z,55.45
2022-09-17T05:54:32.919Z,56.54
2022-09-17T05:57:19.974Z,54.47
2022-09-17T06:00:06.864Z,54.48
2022-09-17T06:02:46.980Z,52.46
2022-09-17T06:05:33.867Z,52.94
2022-09-17T06:08:14.946Z,50.75
2022-09-17T06:11:02.689Z,48.91
2022-09-17T06:13:50.915Z,48.10
2022-09-17T06:16:37.951Z,47.92
2022-09-17T06:19:24.906Z,47.89
2022-09-17T06:22:05.939Z,47.75
2022-09-17T06:24:52.906Z,47.68
2022-09-17T06:27:34.713Z,47.83
2022-09-17T06:30:21.864Z,45.31
2022-09-17T06:33:02.546Z,45.08
2022-09-17T06:35:48.853Z,46.22
2022-09-17T06:38:30.713Z,44.94
2022-09-17T06:41:17.828Z,44.50
2022-09-17T06:44:04.842Z,44.64
2022-09-17T06:46:51.862Z,44.84
2022-09-17T06:49:32.242Z,45.91
2022-09-17T06:52:18.940Z,42.62
2022-09-17T06:54:59.212Z,43.21
2022-09-17T06:57:45.845Z,41.13
2022-09-17T07:00:27.109Z,41.32
2022-09-17T07:03:14.924Z,41.17
2022-09-17T07:06:03.851Z,42.62
2022-09-17T07:08:43.919Z,43.38
2022-09-17T07:11:31.814Z,45.22
2022-09-17T07:14:11.912Z,43.64
2022-09-17T07:16:59.839Z,43.39
2022-09-17T07:19:39.899Z,41.13
2022-09-17T07:22:26.863Z,41.95
2022-09-17T07:25:06.996Z,40.88
2022-09-17T07:27:53.811Z,39.78
2022-09-17T07:30:33.905Z,43.67
2022-09-17T07:33:22.805Z,43.29
2022-09-17T07:36:12.798Z,41.51
2022-09-17T07:38:53.675Z,42.28
2022-09-17T07:41:40.846Z,40.63
2022-09-17T07:44:28.792Z,41.28
2022-09-17T07:47:10.065Z,38.78
2022-09-17T07:49:56.797Z,37.87
2022-09-17T07:52:36.782Z,38.92
2022-09-17T07:55:23.791Z,37.43
2022-09-17T07:58:04.466Z,36.93
2022-09-17T08:00:50.777Z,37.00
2022-09-17T08:03:31.322Z,36.46
2022-09-17T08:09:24.169Z,37.48
2022-09-17T08:12:10.770Z,39.18
2022-09-17T08:14:51.206Z,39.09
2022-09-17T08:17:38.751Z,38.52
2022-09-17T08:20:20.170Z,39.02
2022-09-17T08:23:14.764Z,38.88
2022-09-17T08:26:03.741Z,39.57
2022-09-17T08:28:43.874Z,39.35
2022-09-17T08:31:33.795Z,39.80
2022-09-17T08:34:14.878Z,39.96
2022-09-17T08:37:01.756Z,39.07
2022-09-17T08:39:42.109Z,37.30
2022-09-17T08:42:42.731Z,37.66
2022-09-17T08:45:23.852Z,37.43
2022-09-17T08:48:17.719Z,40.05
2022-09-17T08:51:03.272Z,41.25
2022-09-17T08:54:12.734Z,41.17
2022-09-17T08:56:58.798Z,41.87
2022-09-17T09:00:08.719Z,41.82
2022-09-17T09:02:57.822Z,42.09
2022-09-17T09:05:59.699Z,42.03
2022-09-17T09:08:58.667Z,41.45
2022-09-17T09:11:46.674Z,44.01
2022-09-17T09:14:47.176Z,44.38
2022-09-17T09:17:41.704Z,44.56
2022-09-17T09:20:55.923Z,45.66
2022-09-17T09:24:11.669Z,47.71
2022-09-17T09:27:18.693Z,48.44
2022-09-17T09:30:02.276Z,53.03
2022-09-17T09:33:04.698Z,53.71
2022-09-17T09:35:45.157Z,55.56
2022-09-17T09:38:44.666Z,54.87
2022-09-17T09:41:45.809Z,53.15
2022-09-17T09:44:32.641Z,51.92
2022-09-17T09:47:45.673Z,49.51
2022-09-17T09:51:01.934Z,50.88
2022-09-17T09:54:14.672Z,49.50
2022-09-17T09:57:14.653Z,50.61
2022-09-17T10:00:26.569Z,54.26
2022-09-17T10:03:34.653Z,52.16
2022-09-17T10:06:23.680Z,51.74
2022-09-17T10:09:03.749Z,51.48
2022-09-17T10:12:21.628Z,50.68
2022-09-17T10:15:08.617Z,48.52
2022-09-17T10:17:48.992Z,52.55
2022-09-17T10:20:35.638Z,54.60
2022-09-17T10:23:16.138Z,55.79
2022-09-17T10:26:02.658Z,61.20
2022-09-17T10:28:58.681Z,57.93
2022-09-17T10:31:57.910Z,56.96
2022-09-17T10:34:44.600Z,53.81
2022-09-17T10:37:55.625Z,52.73
2022-09-17T10:40:42.636Z,52.79
2022-09-17T10:43:34.615Z,52.21
2022-09-17T10:46:31.683Z,53.75
2022-09-17T10:49:32.610Z,54.64
2022-09-17T10:52:30.706Z,55.05
2022-09-17T10:55:19.586Z,54.87
2022-09-17T10:58:05.962Z,55.91
2022-09-17T11:01:01.574Z,58.36
2022-09-17T11:04:03.201Z,56.55
2022-09-17T11:07:29.588Z,56.79
2022-09-17T11:10:25.170Z,57.83
2022-09-17T11:13:50.568Z,56.17
2022-09-17T11:16:52.601Z,56.37
2022-09-17T11:20:02.558Z,56.77
2022-09-17T11:23:07.534Z,56.05
2022-09-17T11:26:08.542Z,57.45
2022-09-17T11:29:32.526Z,60.15
2022-09-17T11:32:30.671Z,64.46
2022-09-17T11:35:38.562Z,68.19
2022-09-17T11:38:46.716Z,65.36
2022-09-17T11:41:38.543Z,66.73
2022-09-17T11:44:31.635Z,67.98
2022-09-17T11:47:25.522Z,65.85
2022-09-17T11:50:19.551Z,65.58
2022-09-17T11:53:11.985Z,64.49
2022-09-17T11:56:04.583Z,63.07
2022-09-17T11:58:51.046Z,60.01
2022-09-17T12:02:00.611Z,60.00
2022-09-17T12:05:06.895Z,56.92
2022-09-17T12:08:12.437Z,57.67
2022-09-17T12:11:15.630Z,59.71
2022-09-17T12:14:14.493Z,60.29
2022-09-17T12:17:22.796Z,60.89
2022-09-17T12:20:35.511Z,61.32
2022-09-17T12:23:28.482Z,60.03
2022-09-17T12:27:06.602Z,59.24
2022-09-17T12:29:53.591Z,60.00
2022-09-17T12:32:59.633Z,59.99
2022-09-17T12:36:05.730Z,60.26
2022-09-17T12:39:16.479Z,61.09
2022-09-17T12:41:56.578Z,61.97
2022-09-17T12:45:02.446Z,63.27
2022-09-17T12:48:30.504Z,64.49
2022-09-17T12:51:34.530Z,64.81
2022-09-17T12:54:23.616Z,64.53
2022-09-17T12:57:19.508Z,64.37
2022-09-17T13:00:11.826Z,64.68
2022-09-17T13:03:08.467Z,65.86
2022-09-17T13:05:55.155Z,66.81
2022-09-17T13:08:50.798Z,66.97
2022-09-17T13:11:49.598Z,68.69
2022-09-17T13:14:53.464Z,68.65
2022-09-17T13:18:22.935Z,68.35
2022-09-17T13:21:23.564Z,67.90
2022-09-17T13:24:12.430Z,68.20
2022-09-17T13:27:02.101Z,66.35
2022-09-17T13:29:53.465Z,65.11
2022-09-17T13:32:36.940Z,62.62
2022-09-17T13:35:23.442Z,62.47
2022-09-17T13:38:04.002Z,62.02
2022-09-17T13:40:50.444Z,61.75
2022-09-17T13:43:31.019Z,56.57
2022-09-17T13:46:17.493Z,57.15
2022-09-17T13:49:09.356Z,78.94
2022-09-17T13:51:52.523Z,89.81
2022-09-17T13:54:45.457Z,94.99
2022-09-17T13:57:32.414Z,96.77
2022-09-17T14:00:51.343Z,98.94
2022-09-17T14:03:44.595Z,100.00
2022-09-17T14:06:24.808Z,99.77
2022-09-17T14:09:11.396Z,100.00
2022-09-17T14:11:52.001Z,100.00
2022-09-17T14:14:41.461Z,99.48
2022-09-17T14:17:51.920Z,98.73
2022-09-17T14:20:39.407Z,100.00
2022-09-17T14:23:26.371Z,100.00
2022-09-17T14:26:17.413Z,100.00
2022-09-17T14:29:19.380Z,96.26
2022-09-17T14:31:59.516Z,97.90
2022-09-17T14:34:46.330Z,96.50
2022-09-17T14:37:35.343Z,94.98
2022-09-17T14:40:25.565Z,92.85
2022-09-17T14:43:06.366Z,95.58
2022-09-17T14:45:58.379Z,93.95
2022-09-17T14:48:41.548Z,92.59
2022-09-17T14:51:30.332Z,90.42
2022-09-17T14:54:15.515Z,90.82
2022-09-17T14:57:06.348Z,93.75
2022-09-17T14:59:54.459Z,91.16
2022-09-17T15:02:48.321Z,91.97
2022-09-17T15:05:49.345Z,94.37
2022-09-17T15:08:37.319Z,95.32
2022-09-17T15:27:58.651Z,94.39
2022-09-17T15:30:39.206Z,94.77
2022-09-17T15:33:25.737Z,91.54
2022-09-17T15:36:25.312Z,90.81
2022-09-17T15:39:12.688Z,89.60
2022-09-17T15:41:57.420Z,89.76
2022-09-17T15:44:45.689Z,90.52
2022-09-17T15:48:10.970Z,89.68
2022-09-17T15:50:59.850Z,89.37
2022-09-17T15:53:58.653Z,87.69
2022-09-17T15:56:39.755Z,89.17
2022-09-17T15:59:26.673Z,88.70
2022-09-17T16:02:08.946Z,88.59
2022-09-17T16:04:59.654Z,88.73
2022-09-17T16:07:46.605Z,86.86
2022-09-17T16:10:27.082Z,88.19
2022-09-17T16:13:13.633Z,85.83
2022-09-17T16:15:54.125Z,84.58
2022-09-17T16:18:40.598Z,84.40
2022-09-17T16:21:21.053Z,87.30
2022-09-17T16:24:07.648Z,88.27
2022-09-17T16:27:01.616Z,88.43
2022-09-17T16:29:48.630Z,87.41
2022-09-17T16:32:35.639Z,87.18
2022-09-17T16:35:27.639Z,85.47
2022-09-17T16:38:07.810Z,85.98
2022-09-17T16:40:54.642Z,86.22
2022-09-17T16:43:35.547Z,86.28
2022-09-17T16:46:22.646Z,86.83
2022-09-17T16:49:09.573Z,86.67
2022-09-17T16:51:56.594Z,86.86
2022-09-17T16:54:36.783Z,87.87
2022-09-17T16:57:23.681Z,88.54
2022-09-17T17:00:04.194Z,89.16
2022-09-17T17:02:50.659Z,91.76
2022-09-17T17:05:33.670Z,91.40
2022-09-17T17:08:21.616Z,91.86
2022-09-17T17:11:01.726Z,92.19
2022-09-17T17:13:49.659Z,92.28
2022-09-17T17:16:29.927Z,92.09
2022-09-17T17:19:16.527Z,92.77
2022-09-17T17:22:04.574Z,95.37
2022-09-17T17:24:44.922Z,95.10
2022-09-17T17:27:31.544Z,94.64
2022-09-17T17:30:23.638Z,94.82
2022-09-17T17:33:10.611Z,95.36
2022-09-17T17:35:57.573Z,94.10
2022-09-17T17:38:37.673Z,94.28
2022-09-17T17:41:24.525Z,94.29
2022-09-17T17:44:11.549Z,93.66
2022-09-17T17:46:52.011Z,93.25
2022-09-17T17:49:38.545Z,93.65
2022-09-17T17:52:18.947Z,94.34
2022-09-17T17:55:05.570Z,94.36
2022-09-17T17:57:46.067Z,93.95
2022-09-17T18:00:32.576Z,94.13
2022-09-17T18:03:13.016Z,93.52
2022-09-17T18:06:00.539Z,91.10
2022-09-17T18:08:42.697Z,89.99
2022-09-17T18:11:29.546Z,88.60
2022-09-17T18:14:13.421Z,88.07
2022-09-17T18:17:00.480Z,87.65
2022-09-17T18:19:41.005Z,86.45
2022-09-17T18:22:27.493Z,88.90
2022-09-17T18:25:08.385Z,89.22
2022-09-17T18:27:55.531Z,89.78
2022-09-17T18:30:44.491Z,91.11
2022-09-17T18:33:26.713Z,90.98
2022-09-17T18:36:13.477Z,90.35
2022-09-17T18:39:16.744Z,89.15
2022-09-17T18:42:07.467Z,88.35
2022-09-17T18:44:47.678Z,87.42
2022-09-17T18:47:34.478Z,87.62
2022-09-17T18:50:14.637Z,87.96
2022-09-17T18:53:01.537Z,90.64
2022-09-17T18:55:41.771Z,94.34
2022-09-17T18:58:28.493Z,98.68
2022-09-17T19:01:12.615Z,100.00
2022-09-17T19:04:00.498Z,100.00
2022-09-17T19:06:47.459Z,100.00
2022-09-17T19:09:34.582Z,100.00
2022-09-17T19:12:14.466Z,100.00
2022-09-17T19:15:01.437Z,100.00
2022-09-17T19:17:48.496Z,100.00
2022-09-17T19:20:29.803Z,100.00
2022-09-17T19:23:17.477Z,100.00
2022-09-17T19:26:18.468Z,100.00
2022-09-17T19:29:00.501Z,100.00
2022-09-17T19:31:47.486Z,100.00
2022-09-17T19:34:34.423Z,100.00
2022-09-17T19:37:21.495Z,100.00
2022-09-17T19:40:09.454Z,100.00
2022-09-17T19:42:49.534Z,100.00
2022-09-17T19:45:36.441Z,100.00
2022-09-17T19:48:16.557Z,100.00
2022-09-17T19:51:04.427Z,100.00
2022-09-17T19:53:44.559Z,100.00
2022-09-17T19:56:33.442Z,100.00
2022-09-17T19:59:13.622Z,100.00
2022-09-17T20:02:00.503Z,100.00
2022-09-17T20:04:40.534Z,100.00
2022-09-17T20:07:27.367Z,100.00
2022-09-17T20:10:07.799Z,100.00
2022-09-17T20:12:54.398Z,100.00
2022-09-17T20:15:41.491Z,100.00
2022-09-17T20:18:23.736Z,100.00
2022-09-17T20:21:10.399Z,100.00
2022-09-17T20:23:51.137Z,100.00
2022-09-17T20:26:38.387Z,100.00
2022-09-17T20:29:18.780Z,100.00
2022-09-17T20:32:05.400Z,100.00
2022-09-17T20:34:52.458Z,100.00
2022-09-17T20:38:16.103Z,100.00
2022-09-17T20:40:39.424Z,100.00
2022-09-17T20:43:19.490Z,100.00
2022-09-17T20:46:06.400Z,100.00
2022-09-17T20:48:47.584Z,100.00
2022-09-17T20:51:36.328Z,100.00
2022-09-17T20:54:23.355Z,100.00
2022-09-17T20:57:03.890Z,100.00
2022-09-17T20:59:59.332Z,100.00
2022-09-17T21:02:41.646Z,100.00
2022-09-17T21:05:28.338Z,100.00
2022-09-17T21:08:08.773Z,100.00
2022-09-17T21:10:57.318Z,100.00
2022-09-17T21:13:44.291Z,100.00
2022-09-17T21:16:25.485Z,100.00
2022-09-17T21:19:14.324Z,100.00
2022-09-17T21:22:03.344Z,100.00
2022-09-17T21:24:43.741Z,100.00
2022-09-17T21:27:30.314Z,100.00
2022-09-17T21:30:11.517Z,100.00
2022-09-17T21:32:58.326Z,100.00
2022-09-17T21:35:38.683Z,100.00
2022-09-17T21:38:27.296Z,100.00
2022-09-17T21:41:20.392Z,100.00
2022-09-17T21:44:01.259Z,100.00
2022-09-17T21:46:49.297Z,100.00
2022-09-17T21:49:36.252Z,100.00
2022-09-17T21:52:16.661Z,100.00
2022-09-17T21:55:03.311Z,100.00
2022-09-17T21:57:43.646Z,100.00
2022-09-17T22:00:30.294Z,100.00
2022-09-17T22:03:10.673Z,100.00
2022-09-17T22:05:57.271Z,100.00
2022-09-17T22:08:45.272Z,100.00
2022-09-17T22:11:40.216Z,100.00
2022-09-17T22:14:23.285Z,100.00
2022-09-17T22:17:10.221Z,100.00
2022-09-17T22:19:57.283Z,100.00
2022-09-17T22:22:44.245Z,100.00
2022-09-17T22:25:24.668Z,100.00
2022-09-17T22:28:21.038Z,100.00
2022-09-17T22:31:17.307Z,100.00
2022-09-17T22:34:04.278Z,100.00
2022-09-17T22:36:45.399Z,100.00
2022-09-17T22:39:32.263Z,100.00
2022-09-17T22:42:19.229Z,100.00
2022-09-17T22:44:59.572Z,100.00
2022-09-17T22:47:46.221Z,100.00
2022-09-17T22:50:33.211Z,100.00
2022-09-17T22:53:13.292Z,100.00
2022-09-17T22:56:04.206Z,100.00
2022-09-17T22:58:51.237Z,100.00
2022-09-17T23:01:40.294Z,100.00
2022-09-17T23:04:20.407Z,100.00
2022-09-17T23:07:07.204Z,100.00
2022-09-17T23:09:54.173Z,100.00
2022-09-17T23:12:41.194Z,100.00
2022-09-17T23:15:33.169Z,100.00
2022-09-17T23:18:13.698Z,100.00
2022-09-17T23:21:10.162Z,100.00
2022-09-17T23:23:51.215Z,100.00
2022-09-17T23:26:40.203Z,100.00
2022-09-17T23:29:27.165Z,100.00
2022-09-17T23:32:07.288Z,100.00
2022-09-17T23:34:54.168Z,100.00
2022-09-17T23:37:34.951Z,100.00
2022-09-17T23:40:22.231Z,100.00
2022-09-17T23:43:03.254Z,100.00
2022-09-17T23:45:50.175Z,100.00
2022-09-17T23:48:30.256Z,100.00
2022-09-17T23:51:17.174Z,100.00
2022-09-17T23:53:57.286Z,100.00
2022-09-17T23:56:44.107Z,100.00
2022-09-17T23:59:24.285Z,100.00
